Time;durP1;ratioP1;P1;durP2;ratioP2;P2;SDS_P1;SDS_P2;PMS_P1;PMS_P2;Temp;Humidity;BMP_temperature;BMP_pressure;BME280_temperature;BME280_humidity;BME280_pressure;Samples;Min_cycle;Max_cycle;Signal;HPM_P1;HPM_P2
2021/08/06 00:01:28;;;;;;;;;;;;;;;17.41;88.21;98936.91;1419825;92;20259;-87
2021/08/06 00:03:55;;;;;;;;;;;;;;;17.39;88.41;98941.66;1419827;92;20349;-87
2021/08/06 00:06:27;;;;;;;;;;;;;;;17.38;88.42;98934.70;1417167;92;20848;-87
2021/08/06 00:08:50;;;;;;;;;;;;;;;17.40;88.06;98933.11;1424944;92;20305;-86
2021/08/06 00:11:16;;;;;;;;;;;;;;;17.39;88.31;98940.85;1422316;92;20297;-87
2021/08/06 00:13:42;;;;;;;;;;;;;;;17.37;88.47;98941.06;1418929;92;20397;-87
2021/08/06 00:16:08;;;;;;;;;;;;;;;17.36;88.21;98939.45;1424954;92;20289;-87
2021/08/06 00:18:34;;;;;;;;;;;;;;;17.36;88.11;98944.80;1395993;92;20231;-87
2021/08/06 00:21:00;;;;;;;;;;;;;;;17.35;88.00;98945.84;1423554;92;20385;-87
2021/08/06 00:23:25;;;;;;;;;;;;;;;17.36;88.08;98955.49;1410398;92;20819;-87
2021/08/06 00:25:52;;;;;;;;;;;;;;;17.36;87.72;98958.16;1418726;92;20307;-87
2021/08/06 00:28:18;;;;;;;;;;;;;;;17.39;87.43;98960.38;1422606;92;20730;-87
2021/08/06 00:30:43;;;;;;;;;;;;;;;17.42;87.34;98961.27;1424641;92;20374;-87
2021/08/06 00:33:09;;;;;;;;;;;;;;;17.43;87.12;98972.24;1418920;92;20349;-87
2021/08/06 00:35:35;;;;;;;;;;;;;;;17.45;86.98;98982.73;1419588;92;20400;-87
2021/08/06 00:38:01;;;;;;;;;;;;;;;17.46;86.70;98977.66;1417840;92;20275;-87
2021/08/06 00:40:27;;;;;;;;;;;;;;;17.47;86.27;98985.48;1425851;92;20751;-86
2021/08/06 00:42:53;;;;;;;;;;;;;;;17.47;86.28;98986.00;1416959;92;20209;-87
2021/08/06 00:45:19;;;;;;;;;;;;;;;17.46;86.28;98992.38;1426039;92;20297;-87
2021/08/06 00:47:45;;;;;;;;;;;;;;;17.44;85.68;98985.13;1418419;92;20951;-87
2021/08/06 00:50:12;;;;;;;;;;;;;;;17.47;85.43;98998.04;1427651;92;20452;-87
2021/08/06 00:52:39;;;;;;;;;;;;;;;17.44;85.53;98992.62;1422171;92;20797;-87
2021/08/06 00:55:06;;;;;;;;;;;;;;;17.41;85.48;98995.75;1422759;92;20283;-87
2021/08/06 00:57:32;;;;;;;;;;;;;;;17.40;85.45;98998.63;1416470;92;20825;-87
2021/08/06 00:59:58;;;;;;;;;;;;;;;17.35;85.14;98998.80;1426775;92;20387;-88
2021/08/06 01:02:30;;;;;;;;;;;;;;;17.35;84.83;98997.99;1397204;92;20201;-87
2021/08/06 01:05:02;;;;;;;;;;;;;;;17.32;84.79;98999.75;1423911;92;20276;-87
2021/08/06 01:07:44;;;;;;;;;;;;;;;17.31;84.95;99006.16;1406497;92;20282;-86
2021/08/06 01:10:11;;;;;;;;;;;;;;;17.31;84.40;99008.83;1418112;92;20253;-87
2021/08/06 01:12:56;;;;;;;;;;;;;;;17.33;84.25;99006.75;1398093;93;20907;-87
2021/08/06 01:15:23;;;;;;;;;;;;;;;17.32;84.33;99009.11;1421474;93;20427;-87
2021/08/06 01:17:50;;;;;;;;;;;;;;;17.33;83.51;99012.91;1411978;92;20345;-86
2021/08/06 01:20:23;;;;;;;;;;;;;;;17.36;83.50;99010.31;1408485;92;20404;-87
2021/08/06 01:23:17;;;;;;;;;;;;;;;17.34;83.06;99007.04;1410338;93;20301;-87
2021/08/06 01:25:46;;;;;;;;;;;;;;;17.30;82.78;99011.22;1407098;93;20247;-87
2021/08/06 01:28:15;;;;;;;;;;;;;;;17.23;82.59;99008.61;1395172;93;20268;-86
2021/08/06 01:30:43;;;;;;;;;;;;;;;17.20;82.66;99008.25;1415756;93;20329;-86
2021/08/06 01:33:11;;;;;;;;;;;;;;;17.12;82.69;98996.03;1411770;93;20338;-86
2021/08/06 01:35:37;;;;;;;;;;;;;;;17.09;82.58;98990.61;1413737;92;20402;-87
2021/08/06 01:38:03;;;;;;;;;;;;;;;17.03;82.62;98998.69;1407277;92;20401;-87
2021/08/06 01:40:31;;;;;;;;;;;;;;;17.00;82.56;98997.27;1395245;93;20745;-86
2021/08/06 01:43:23;;;;;;;;;;;;;;;16.93;82.56;98991.20;1401287;93;20274;-86
2021/08/06 01:45:52;;;;;;;;;;;;;;;16.83;83.12;98985.56;1404710;92;20320;-86
2021/08/06 01:48:21;;;;;;;;;;;;;;;16.76;83.44;98986.98;1415691;92;20406;-87
2021/08/06 01:50:48;;;;;;;;;;;;;;;16.73;83.38;98977.23;1422221;92;20327;-87
2021/08/06 01:53:17;;;;;;;;;;;;;;;16.70;83.69;98976.63;1423118;92;20353;-87
2021/08/06 01:55:47;;;;;;;;;;;;;;;16.69;83.61;98991.56;1409065;93;20300;-87
2021/08/06 01:58:13;;;;;;;;;;;;;;;16.65;83.81;98987.16;1387774;95;20414;-87
2021/08/06 02:00:40;;;;;;;;;;;;;;;16.63;83.54;98989.27;1409012;93;20542;-87
2021/08/06 02:03:07;;;;;;;;;;;;;;;16.63;83.47;98987.92;1409256;93;20257;-87
2021/08/06 02:05:34;;;;;;;;;;;;;;;16.59;83.83;98996.06;1418509;92;20286;-87
2021/08/06 02:08:01;;;;;;;;;;;;;;;16.60;83.50;98997.72;1413527;93;20451;-87
2021/08/06 02:10:29;;;;;;;;;;;;;;;16.58;83.28;98994.44;1414391;92;20778;-87
2021/08/06 02:12:56;;;;;;;;;;;;;;;16.58;83.22;98993.11;1373989;92;20255;-86
2021/08/06 02:15:22;;;;;;;;;;;;;;;16.52;83.87;98993.99;1425804;91;20857;-86
2021/08/06 02:17:50;;;;;;;;;;;;;;;16.54;83.81;98995.09;1427591;92;20324;-87
2021/08/06 02:20:16;;;;;;;;;;;;;;;16.55;83.45;99000.75;1402945;92;20281;-87
2021/08/06 02:22:43;;;;;;;;;;;;;;;16.53;83.86;99005.48;1410678;92;20486;-87
2021/08/06 02:25:13;;;;;;;;;;;;;;;16.53;83.80;99003.63;1398744;92;20311;-87
2021/08/06 02:27:39;;;;;;;;;;;;;;;16.57;84.01;99006.67;1423872;92;20418;-87
2021/08/06 02:30:06;;;;;;;;;;;;;;;16.58;84.30;99005.13;1412705;92;20244;-87
2021/08/06 02:32:32;;;;;;;;;;;;;;;16.63;84.10;98999.95;1429079;92;20368;-87
2021/08/06 02:34:58;;;;;;;;;;;;;;;16.64;83.85;99006.91;1409756;92;20810;-87
2021/08/06 02:37:25;;;;;;;;;;;;;;;16.63;83.96;99007.95;1423255;92;20504;-87
2021/08/06 02:39:51;;;;;;;;;;;;;;;16.68;83.59;98993.39;1413660;92;20325;-87
2021/08/06 02:42:17;;;;;;;;;;;;;;;16.71;83.82;98998.81;1417132;92;20349;-87
2021/08/06 02:44:43;;;;;;;;;;;;;;;16.75;83.51;99004.55;1412202;92;20948;-87
2021/08/06 02:47:10;;;;;;;;;;;;;;;16.79;83.33;99005.76;1409270;92;20259;-86
2021/08/06 02:49:36;;;;;;;;;;;;;;;16.85;83.13;99008.88;1423174;92;20371;-87
2021/08/06 02:52:05;;;;;;;;;;;;;;;16.90;83.17;99013.03;1426475;92;20286;-86
2021/08/06 02:54:32;;;;;;;;;;;;;;;16.93;82.92;99015.27;1419196;92;20483;-86
2021/08/06 02:56:58;;;;;;;;;;;;;;;16.97;82.76;99008.41;1432151;92;20341;-87
2021/08/06 02:59:24;;;;;;;;;;;;;;;17.01;82.41;99004.27;1427018;92;20286;-87
2021/08/06 03:01:50;;;;;;;;;;;;;;;16.99;82.28;99006.34;1423927;92;20308;-86
2021/08/06 03:04:16;;;;;;;;;;;;;;;17.00;82.25;99005.30;1413612;92;20263;-87
2021/08/06 03:06:42;;;;;;;;;;;;;;;17.00;82.31;99003.95;1420999;92;20309;-87
2021/08/06 03:09:08;;;;;;;;;;;;;;;16.97;82.16;99002.26;1430365;92;20866;-87
2021/08/06 03:11:34;;;;;;;;;;;;;;;16.96;82.20;99006.80;1409099;92;20260;-86
2021/08/06 03:14:00;;;;;;;;;;;;;;;16.97;81.99;99005.74;1430770;91;20411;-87
2021/08/06 03:16:26;;;;;;;;;;;;;;;16.97;81.77;99001.73;1426205;92;20767;-87
2021/08/06 03:18:52;;;;;;;;;;;;;;;16.95;82.09;99005.17;1427111;92;20245;-87
2021/08/06 03:21:18;;;;;;;;;;;;;;;16.95;81.93;99012.38;1412820;92;20334;-86
2021/08/06 03:23:44;;;;;;;;;;;;;;;16.96;82.00;99009.47;1417324;92;20274;-87
2021/08/06 03:26:10;;;;;;;;;;;;;;;17.00;81.72;99013.31;1421787;92;20261;-86
2021/08/06 03:28:36;;;;;;;;;;;;;;;17.01;81.84;99008.81;1417333;92;20966;-86
2021/08/06 03:31:02;;;;;;;;;;;;;;;17.03;81.47;99006.70;1422823;92;20253;-86
2021/08/06 03:33:28;;;;;;;;;;;;;;;17.03;81.33;99010.22;1423330;92;20304;-87
2021/08/06 03:35:53;;;;;;;;;;;;;;;17.07;81.17;99007.91;1423918;92;20290;-86
2021/08/06 03:38:21;;;;;;;;;;;;;;;17.10;81.37;99008.27;1430686;92;20416;-86
2021/08/06 03:40:48;;;;;;;;;;;;;;;17.10;80.97;99010.94;1423368;92;20253;-86
2021/08/06 03:43:15;;;;;;;;;;;;;;;17.13;81.15;99008.34;1430811;92;20848;-87
2021/08/06 03:45:41;;;;;;;;;;;;;;;17.16;80.65;99011.09;1422498;92;20424;-86
2021/08/06 03:48:08;;;;;;;;;;;;;;;17.19;80.63;99017.33;1421155;92;20802;-86
2021/08/06 03:50:35;;;;;;;;;;;;;;;17.20;80.45;99021.09;1424410;92;20479;-86
2021/08/06 03:53:01;;;;;;;;;;;;;;;17.25;80.35;99024.44;1394554;92;20289;-86
2021/08/06 03:55:27;;;;;;;;;;;;;;;17.24;80.25;99029.50;1421539;92;20715;-86
2021/08/06 03:57:55;;;;;;;;;;;;;;;17.24;80.42;99022.82;1419342;92;20334;-86
2021/08/06 04:00:23;;;;;;;;;;;;;;;17.24;80.25;99021.48;1418181;92;20759;-86
2021/08/06 04:02:49;;;;;;;;;;;;;;;17.25;80.10;99021.77;1431019;92;20289;-86
2021/08/06 04:05:15;;;;;;;;;;;;;;;17.26;80.23;99026.06;1429252;92;20341;-86
2021/08/06 04:07:43;;;;;;;;;;;;;;;17.24;80.10;99024.16;1422179;91;20296;-87
2021/08/06 04:10:10;;;;;;;;;;;;;;;17.25;79.89;99020.43;1431792;92;20296;-86
2021/08/06 04:12:36;;;;;;;;;;;;;;;17.26;79.62;99022.05;1421868;92;20342;-86
2021/08/06 04:15:03;;;;;;;;;;;;;;;17.26;79.60;99031.41;1404840;92;20261;-86
2021/08/06 04:17:29;;;;;;;;;;;;;;;17.27;79.49;99035.20;1419056;92;20297;-87
2021/08/06 04:19:55;;;;;;;;;;;;;;;17.21;79.23;99029.95;1418588;92;20372;-86
2021/08/06 04:22:21;;;;;;;;;;;;;;;17.20;79.03;99026.44;1410827;92;20884;-86
2021/08/06 04:24:47;;;;;;;;;;;;;;;17.24;79.05;99029.50;1419509;92;20253;-86
2021/08/06 04:27:13;;;;;;;;;;;;;;;17.25;78.88;99027.11;1422178;92;20394;-86
2021/08/06 04:29:39;;;;;;;;;;;;;;;17.26;78.40;99035.42;1424620;92;20846;-86
2021/08/06 04:32:05;;;;;;;;;;;;;;;17.29;78.33;99036.30;1417620;92;20419;-85
2021/08/06 04:34:31;;;;;;;;;;;;;;;17.24;78.26;99042.34;1423130;92;20375;-86
2021/08/06 04:36:57;;;;;;;;;;;;;;;17.26;78.17;99037.59;1417920;92;20814;-87
2021/08/06 04:39:23;;;;;;;;;;;;;;;17.30;78.00;99039.30;1425013;92;20304;-86
2021/08/06 04:41:49;;;;;;;;;;;;;;;17.32;77.84;99042.54;1422473;92;20492;-86
2021/08/06 04:44:16;;;;;;;;;;;;;;;17.34;77.43;99037.79;1423626;92;20245;-87
2021/08/06 04:46:42;;;;;;;;;;;;;;;17.31;77.58;99043.06;1417039;92;20311;-86
2021/08/06 04:49:08;;;;;;;;;;;;;;;17.34;77.93;99053.84;1426149;92;20408;-86
2021/08/06 04:51:34;;;;;;;;;;;;;;;17.34;77.45;99048.48;1418282;92;20253;-86
2021/08/06 04:54:00;;;;;;;;;;;;;;;17.26;77.14;99052.30;1405225;92;20289;-85
2021/08/06 04:56:26;;;;;;;;;;;;;;;17.24;77.25;99049.55;1418558;92;20342;-86
2021/08/06 04:58:51;;;;;;;;;;;;;;;17.19;77.58;99060.91;1416869;92;20260;-86
2021/08/06 05:01:17;;;;;;;;;;;;;;;17.21;77.64;99045.99;1426605;92;20507;-87
2021/08/06 05:03:43;;;;;;;;;;;;;;;17.12;77.51;99063.67;1422255;92;20774;-86
2021/08/06 05:06:09;;;;;;;;;;;;;;;17.15;77.48;99061.07;1423264;92;20297;-86
2021/08/06 05:08:38;;;;;;;;;;;;;;;17.14;77.47;99049.53;1420795;92;20303;-86
2021/08/06 05:11:03;;;;;;;;;;;;;;;17.16;77.79;99051.19;1424592;92;20349;-86
2021/08/06 05:13:29;;;;;;;;;;;;;;;17.16;77.74;99055.20;1420713;92;20349;-86
2021/08/06 05:15:55;;;;;;;;;;;;;;;17.18;77.41;99043.77;1416590;92;20275;-86
2021/08/06 05:18:21;;;;;;;;;;;;;;;17.20;77.94;99051.02;1415088;92;20360;-86
2021/08/06 05:20:47;;;;;;;;;;;;;;;17.20;77.36;99039.00;1421394;92;20283;-86
2021/08/06 05:23:13;;;;;;;;;;;;;;;17.25;77.54;99041.82;1426492;92;20325;-87
2021/08/06 05:25:39;;;;;;;;;;;;;;;17.31;77.42;99041.73;1426561;92;20884;-86
2021/08/06 05:28:05;;;;;;;;;;;;;;;17.32;77.36;99042.54;1419780;92;20253;-87
2021/08/06 05:30:31;;;;;;;;;;;;;;;17.32;77.35;99053.23;1420070;92;20246;-86
2021/08/06 05:32:56;;;;;;;;;;;;;;;17.40;77.25;99053.45;1422614;92;20267;-86
2021/08/06 05:35:22;;;;;;;;;;;;;;;17.41;77.19;99057.26;1432948;92;20312;-87
2021/08/06 05:37:48;;;;;;;;;;;;;;;17.43;76.98;99063.70;1420156;92;20262;-86
2021/08/06 05:40:14;;;;;;;;;;;;;;;17.45;76.82;99068.31;1420743;92;21224;-86
2021/08/06 05:42:40;;;;;;;;;;;;;;;17.45;76.83;99066.45;1421052;92;20245;-87
2021/08/06 05:45:07;;;;;;;;;;;;;;;17.47;76.58;99057.69;1417817;92;20364;-86
2021/08/06 05:47:53;;;;;;;;;;;;;;;17.47;76.42;99067.05;1426422;92;20252;-86
2021/08/06 05:50:21;;;;;;;;;;;;;;;17.48;76.20;99074.55;1431480;92;20465;-86
2021/08/06 05:52:47;;;;;;;;;;;;;;;17.41;76.34;99086.67;1403275;92;20303;-87
2021/08/06 05:55:14;;;;;;;;;;;;;;;17.43;76.85;99081.89;1434908;92;20230;-86
2021/08/06 05:57:40;;;;;;;;;;;;;;;17.44;75.94;99082.21;1422403;92;20744;-86
2021/08/06 06:00:08;;;;;;;;;;;;;;;17.43;75.94;99083.23;1423329;92;20513;-86
2021/08/06 06:02:34;;;;;;;;;;;;;;;17.44;75.94;99093.44;1430700;92;20804;-85
2021/08/06 06:05:00;;;;;;;;;;;;;;;17.46;76.29;99081.97;1426208;92;21123;-86
2021/08/06 06:07:25;;;;;;;;;;;;;;;17.42;75.94;99092.31;1420427;92;20253;-86
2021/08/06 06:09:52;;;;;;;;;;;;;;;17.40;75.83;99094.91;1415202;92;20319;-87
2021/08/06 06:12:17;;;;;;;;;;;;;;;17.40;75.60;99093.05;1417279;92;20299;-87
2021/08/06 06:14:43;;;;;;;;;;;;;;;17.44;75.97;99083.55;1419897;92;20267;-86
2021/08/06 06:17:11;;;;;;;;;;;;;;;17.43;75.72;99083.23;1420782;92;20522;-86
2021/08/06 06:19:38;;;;;;;;;;;;;;;17.46;75.65;99101.50;1419285;92;20472;-86
2021/08/06 06:22:07;;;;;;;;;;;;;;;17.46;75.46;99102.84;1405926;92;20349;-86
2021/08/06 06:24:34;;;;;;;;;;;;;;;17.54;75.73;99105.22;1420259;92;20332;-86
2021/08/06 06:27:00;;;;;;;;;;;;;;;17.56;75.13;99109.83;1408753;92;20305;-86
2021/08/06 06:29:26;;;;;;;;;;;;;;;17.54;74.83;99121.27;1422206;92;20444;-86
2021/08/06 06:31:52;;;;;;;;;;;;;;;17.54;74.53;99127.95;1414588;92;20293;-86
2021/08/06 06:34:18;;;;;;;;;;;;;;;17.50;74.36;99127.30;1417323;92;20300;-85
2021/08/06 06:36:44;;;;;;;;;;;;;;;17.46;74.35;99126.10;1408782;92;20344;-86
2021/08/06 06:39:10;;;;;;;;;;;;;;;17.47;74.37;99119.20;1407162;93;20237;-86
2021/08/06 06:41:36;;;;;;;;;;;;;;;17.49;74.50;99129.17;1416664;92;20718;-86
2021/08/06 06:44:02;;;;;;;;;;;;;;;17.52;74.49;99125.20;1415935;92;20438;-86
2021/08/06 06:46:28;;;;;;;;;;;;;;;17.58;74.59;99137.18;1421384;92;20285;-86
2021/08/06 06:48:54;;;;;;;;;;;;;;;17.58;74.41;99139.86;1406214;92;20260;-86
2021/08/06 06:51:20;;;;;;;;;;;;;;;17.59;74.35;99138.80;1412501;93;20260;-86
2021/08/06 06:53:47;;;;;;;;;;;;;;;17.60;74.56;99129.73;1407835;93;20935;-86
2021/08/06 06:56:13;;;;;;;;;;;;;;;17.66;74.66;99132.02;1418210;92;20271;-86
2021/08/06 06:58:39;;;;;;;;;;;;;;;17.71;74.73;99130.83;1417705;92;20434;-86
2021/08/06 07:01:06;;;;;;;;;;;;;;;17.72;74.07;99134.31;1415048;92;20394;-87
2021/08/06 07:03:34;;;;;;;;;;;;;;;17.72;74.33;99123.62;1407377;92;20268;-86
2021/08/06 07:06:00;;;;;;;;;;;;;;;17.78;74.31;99124.08;1401295;93;20312;-86
2021/08/06 07:08:26;;;;;;;;;;;;;;;17.85;74.25;99125.34;1407239;93;20277;-86
2021/08/06 07:10:52;;;;;;;;;;;;;;;17.96;73.83;99129.41;1401375;93;20312;-87
2021/08/06 07:13:18;;;;;;;;;;;;;;;18.08;73.76;99133.98;1404182;93;20753;-86
2021/08/06 07:15:46;;;;;;;;;;;;;;;18.14;72.68;99139.77;1403748;92;20338;-86
2021/08/06 07:18:12;;;;;;;;;;;;;;;18.15;72.30;99140.05;1433945;90;20270;-86
2021/08/06 07:20:38;;;;;;;;;;;;;;;18.22;72.19;99140.78;1440137;91;20425;-86
2021/08/06 07:23:05;;;;;;;;;;;;;;;18.21;71.80;99139.13;1435387;91;20449;-86
2021/08/06 07:25:31;;;;;;;;;;;;;;;18.27;71.49;99134.23;1442362;91;20351;-86
2021/08/06 07:27:56;;;;;;;;;;;;;;;18.39;71.69;99136.41;1435928;91;20247;-86
2021/08/06 07:30:23;;;;;;;;;;;;;;;18.39;71.06;99133.72;1432283;91;20457;-86
2021/08/06 07:32:50;;;;;;;;;;;;;;;18.41;71.03;99138.83;1434831;91;20389;-86
2021/08/06 07:35:16;;;;;;;;;;;;;;;18.47;71.11;99145.45;1429136;91;20380;-86
2021/08/06 07:37:42;;;;;;;;;;;;;;;18.53;71.14;99145.05;1436053;91;20460;-86
2021/08/06 07:40:09;;;;;;;;;;;;;;;18.60;70.21;99153.78;1440262;91;20492;-86
2021/08/06 07:42:35;;;;;;;;;;;;;;;18.74;70.55;99154.42;1439827;91;20445;-87
2021/08/06 07:45:02;;;;;;;;;;;;;;;18.81;70.60;99157.80;1422310;92;20730;-87
2021/08/06 07:47:28;;;;;;;;;;;;;;;19.01;71.20;99163.34;1426678;92;20216;-87
2021/08/06 07:49:53;;;;;;;;;;;;;;;19.14;70.27;99163.12;1425240;92;20386;-87
2021/08/06 07:52:19;;;;;;;;;;;;;;;19.22;69.85;99161.42;1421226;92;20327;-86
2021/08/06 07:54:45;;;;;;;;;;;;;;;19.27;69.80;99168.22;1408422;92;20297;-86
2021/08/06 07:57:12;;;;;;;;;;;;;;;19.29;68.89;99182.75;1424750;92;20284;-87
2021/08/06 07:59:38;;;;;;;;;;;;;;;19.29;68.67;99185.44;1423619;92;20319;-86
2021/08/06 08:02:06;;;;;;;;;;;;;;;19.29;68.20;99188.92;1422688;92;20231;-86
2021/08/06 08:04:32;;;;;;;;;;;;;;;19.34;68.56;99183.68;1421920;92;20223;-87
2021/08/06 08:06:58;;;;;;;;;;;;;;;19.46;69.10;99187.69;1425046;92;20453;-87
2021/08/06 08:09:24;;;;;;;;;;;;;;;19.48;67.78;99200.85;1423366;92;20237;-87
2021/08/06 08:11:50;;;;;;;;;;;;;;;19.55;68.02;99192.16;1423589;92;20239;-86
2021/08/06 08:14:16;;;;;;;;;;;;;;;19.74;66.66;99196.36;1416530;92;20267;-87
2021/08/06 08:16:42;;;;;;;;;;;;;;;20.13;67.25;99191.20;1426947;92;20316;-87
2021/08/06 08:19:08;;;;;;;;;;;;;;;20.62;66.97;99192.91;1403340;92;20861;-86
2021/08/06 08:21:34;;;;;;;;;;;;;;;20.86;64.17;99192.74;1417138;92;20480;-86
2021/08/06 08:24:00;;;;;;;;;;;;;;;21.03;63.81;99190.89;1416597;92;20394;-86
2021/08/06 08:26:26;;;;;;;;;;;;;;;21.08;63.18;99193.63;1418829;92;20903;-86
2021/08/06 08:28:52;;;;;;;;;;;;;;;21.11;62.95;99199.05;1418440;92;20286;-87
2021/08/06 08:31:18;;;;;;;;;;;;;;;21.18;63.29;99193.80;1418388;92;20248;-87
2021/08/06 08:33:45;;;;;;;;;;;;;;;21.15;62.24;99190.79;1405371;92;20610;-87
2021/08/06 08:36:11;;;;;;;;;;;;;;;21.00;62.48;99193.23;1420529;92;20461;-87
2021/08/06 08:38:37;;;;;;;;;;;;;;;20.98;63.03;99200.22;1412363;92;20369;-87
2021/08/06 08:41:04;;;;;;;;;;;;;;;20.91;62.63;99202.24;1415180;92;20375;-87
2021/08/06 08:43:30;;;;;;;;;;;;;;;20.85;62.71;99204.03;1410474;92;20889;-87
2021/08/06 08:45:57;;;;;;;;;;;;;;;20.88;63.14;99205.42;1401167;93;20376;-87
2021/08/06 08:48:24;;;;;;;;;;;;;;;20.89;62.99;99202.50;1414937;93;20252;-86
2021/08/06 08:50:53;;;;;;;;;;;;;;;20.98;63.13;99207.47;1414411;93;20766;-86
2021/08/06 08:53:18;;;;;;;;;;;;;;;20.85;62.18;99205.91;1406218;93;20980;-87
2021/08/06 08:55:44;;;;;;;;;;;;;;;20.96;63.00;99194.26;1413280;93;20238;-87
2021/08/06 08:58:11;;;;;;;;;;;;;;;21.19;62.14;99196.76;1412111;93;20319;-86
2021/08/06 09:00:39;;;;;;;;;;;;;;;21.49;62.49;99200.15;1406488;92;20433;-86
2021/08/06 09:03:04;;;;;;;;;;;;;;;21.83;61.01;99204.89;1407468;92;20304;-87
2021/08/06 09:05:30;;;;;;;;;;;;;;;22.00;59.55;99200.78;1419585;92;20399;-87
2021/08/06 09:07:58;;;;;;;;;;;;;;;21.96;60.05;99201.02;1421465;92;20307;-87
2021/08/06 09:10:29;;;;;;;;;;;;;;;21.96;59.56;99205.88;1418452;92;20288;-87
2021/08/06 09:12:59;;;;;;;;;;;;;;;22.25;59.26;99208.37;1410672;92;20441;-87
2021/08/06 09:15:54;;;;;;;;;;;;;;;22.57;58.28;99200.86;1405341;92;20253;-87
2021/08/06 09:18:33;;;;;;;;;;;;;;;22.84;57.83;99202.96;1420110;90;20301;-86
2021/08/06 09:21:05;;;;;;;;;;;;;;;22.73;56.33;99203.98;1405581;93;20267;-86
2021/08/06 09:23:41;;;;;;;;;;;;;;;22.52;57.04;99194.34;1411467;92;20731;-86
2021/08/06 09:26:09;;;;;;;;;;;;;;;22.25;57.61;99199.75;1411387;93;20269;-87
2021/08/06 09:28:38;;;;;;;;;;;;;;;22.19;58.70;99194.57;1411879;92;20421;-86
2021/08/06 09:31:15;;;;;;;;;;;;;;;22.21;58.37;99204.54;1399401;93;20345;-87
2021/08/06 09:33:42;;;;;;;;;;;;;;;22.47;57.69;99212.34;1409820;93;20334;-87
2021/08/06 09:36:12;;;;;;;;;;;;;;;22.59;57.05;99197.38;1416043;92;20368;-87
2021/08/06 09:38:39;;;;;;;;;;;;;;;22.73;55.84;99197.23;1415069;92;20419;-86
2021/08/06 09:41:05;;;;;;;;;;;;;;;23.04;55.26;99200.17;1394249;92;20790;-87
2021/08/06 09:43:30;;;;;;;;;;;;;;;23.29;55.14;99200.34;1408331;93;20328;-87
2021/08/06 09:45:56;;;;;;;;;;;;;;;23.10;54.36;99197.28;1420618;92;20338;-87
2021/08/06 09:48:24;;;;;;;;;;;;;;;23.00;55.56;99207.17;1422679;92;20331;-87
2021/08/06 09:50:50;;;;;;;;;;;;;;;22.92;55.72;99206.53;1403077;92;20298;-87
2021/08/06 09:53:18;;;;;;;;;;;;;;;22.72;55.41;99199.63;1421101;92;20439;-87
2021/08/06 09:55:46;;;;;;;;;;;;;;;22.67;55.30;99200.93;1416104;92;20404;-87
2021/08/06 09:58:15;;;;;;;;;;;;;;;22.70;55.07;99201.77;1412453;92;20260;-86
2021/08/06 10:00:45;;;;;;;;;;;;;;;22.58;55.67;99209.22;1420656;92;20361;-87
2021/08/06 10:03:33;;;;;;;;;;;;;;;22.36;56.44;99218.19;1398038;93;20357;-86
2021/08/06 10:06:11;;;;;;;;;;;;;;;22.15;56.58;99219.00;1416441;92;20322;-87
2021/08/06 10:08:37;;;;;;;;;;;;;;;22.03;58.05;99217.25;1399771;93;20446;-87
2021/08/06 10:11:03;;;;;;;;;;;;;;;21.99;57.63;99216.68;1411458;93;20767;-87
2021/08/06 10:13:29;;;;;;;;;;;;;;;22.14;58.05;99214.69;1405865;93;20335;-87
2021/08/06 10:15:56;;;;;;;;;;;;;;;22.28;58.10;99218.64;1405773;93;20223;-87
2021/08/06 10:18:22;;;;;;;;;;;;;;;22.23;57.51;99219.39;1414061;90;20308;-87
2021/08/06 10:20:49;;;;;;;;;;;;;;;22.26;58.18;99220.23;1416034;92;20361;-87
2021/08/06 10:23:15;;;;;;;;;;;;;;;22.64;57.68;99208.19;1424860;92;20323;-87
2021/08/06 10:25:42;;;;;;;;;;;;;;;23.09;56.97;99205.62;1413420;92;20314;-86
2021/08/06 10:28:08;;;;;;;;;;;;;;;23.50;54.93;99212.61;1418484;92;20789;-87
2021/08/06 10:30:37;;;;;;;;;;;;;;;23.81;54.85;99205.50;1407903;92;20386;-87
2021/08/06 10:33:28;;;;;;;;;;;;;;;23.92;53.89;99209.06;1421099;92;20390;-88
2021/08/06 10:36:06;;;;;;;;;;;;;;;23.90;52.98;99211.20;1421070;92;20322;-87
2021/08/06 10:38:40;;;;;;;;;;;;;;;23.84;52.03;99207.13;1413143;93;20840;-87
2021/08/06 10:41:13;;;;;;;;;;;;;;;23.74;51.24;99219.26;1413349;93;20259;-88
2021/08/06 10:43:48;;;;;;;;;;;;;;;23.63;52.04;99212.15;1400637;93;20604;-87
2021/08/06 10:46:16;;;;;;;;;;;;;;;23.59;53.70;99207.81;1418609;92;20361;-87
2021/08/06 10:48:54;;;;;;;;;;;;;;;23.50;52.78;99216.66;1416348;92;20352;-87
2021/08/06 10:51:22;;;;;;;;;;;;;;;23.51;53.58;99217.77;1416264;92;20477;-87
2021/08/06 10:53:58;;;;;;;;;;;;;;;23.42;53.21;99221.50;1422733;92;20293;-88
2021/08/06 10:56:30;;;;;;;;;;;;;;;23.39;53.05;99219.32;1405067;92;20298;-87
2021/08/06 10:58:59;;;;;;;;;;;;;;;23.33;53.17;99217.66;1401247;93;20296;-87
2021/08/06 11:01:31;;;;;;;;;;;;;;;23.26;52.96;99215.72;1419152;92;20938;-87
2021/08/06 11:04:06;;;;;;;;;;;;;;;23.20;52.90;99223.51;1404174;92;20238;-87
2021/08/06 11:06:47;;;;;;;;;;;;;;;23.15;53.41;99225.63;1375030;93;20312;-87
2021/08/06 11:09:27;;;;;;;;;;;;;;;23.19;52.98;99223.24;1425297;92;20249;-87
2021/08/06 11:12:07;;;;;;;;;;;;;;;23.19;52.86;99216.50;1406465;93;20320;-88
2021/08/06 11:14:36;;;;;;;;;;;;;;;23.38;54.74;99221.72;1417196;92;20345;-87
2021/08/06 11:17:11;;;;;;;;;;;;;;;23.53;54.13;99220.19;1419460;93;21436;-88
2021/08/06 11:19:42;;;;;;;;;;;;;;;23.84;53.28;99213.88;1428293;91;20285;-88
2021/08/06 11:22:12;;;;;;;;;;;;;;;23.99;51.97;99216.36;1436809;91;20314;-87
2021/08/06 11:24:43;;;;;;;;;;;;;;;23.92;51.39;99218.52;1437417;91;20815;-88
2021/08/06 11:27:11;;;;;;;;;;;;;;;23.93;51.96;99211.48;1435399;91;20367;-89
2021/08/06 11:29:37;;;;;;;;;;;;;;;24.14;51.53;99216.44;1434071;91;20358;-87
2021/08/06 11:32:06;;;;;;;;;;;;;;;24.06;50.93;99211.54;1437818;91;20545;-88
2021/08/06 11:34:50;;;;;;;;;;;;;;;24.29;51.63;99206.19;1437661;91;20351;-88
2021/08/06 11:37:16;;;;;;;;;;;;;;;24.64;50.89;99197.34;1424625;92;20430;-87
2021/08/06 11:40:01;;;;;;;;;;;;;;;25.16;48.46;99210.33;1418868;92;20239;-88
2021/08/06 11:42:27;;;;;;;;;;;;;;;25.61;48.51;99213.47;1421703;92;20350;-87
2021/08/06 11:44:55;;;;;;;;;;;;;;;25.97;49.01;99214.70;1419878;92;20298;-88
2021/08/06 11:47:37;;;;;;;;;;;;;;;25.80;47.26;99216.91;1426895;92;20261;-88
2021/08/06 11:50:04;;;;;;;;;;;;;;;25.97;46.23;99211.98;1386635;92;20238;-88
2021/08/06 11:52:42;;;;;;;;;;;;;;;26.08;48.22;99206.78;1418184;92;20223;-88
2021/08/06 11:55:09;;;;;;;;;;;;;;;26.01;47.75;99207.66;1425202;92;20506;-87
2021/08/06 11:57:54;;;;;;;;;;;;;;;25.78;46.08;99210.95;1422520;92;20797;-88
2021/08/06 12:00:28;;;;;;;;;;;;;;;25.53;48.19;99203.20;1418298;92;20411;-88
2021/08/06 12:03:07;;;;;;;;;;;;;;;25.13;48.92;99202.73;1424635;92;20281;-87
2021/08/06 12:05:35;;;;;;;;;;;;;;;24.54;50.27;99201.37;1424325;92;20290;-87
2021/08/06 12:08:23;;;;;;;;;;;;;;;24.49;50.24;99204.09;1416789;92;20298;-87
2021/08/06 12:10:55;;;;;;;;;;;;;;;24.23;52.14;99201.31;1422007;92;20490;-88
2021/08/06 12:13:24;;;;;;;;;;;;;;;23.89;50.44;99202.84;1431344;91;20366;-88
2021/08/06 12:16:07;;;;;;;;;;;;;;;23.86;52.03;99206.88;1418937;92;20335;-87
2021/08/06 12:18:35;;;;;;;;;;;;;;;24.01;52.64;99196.66;1421152;92;20401;-87
2021/08/06 12:21:05;;;;;;;;;;;;;;;24.27;52.75;99196.98;1421447;92;20829;-87
2021/08/06 12:23:31;;;;;;;;;;;;;;;24.82;52.04;99199.23;1389935;94;20332;-87
2021/08/06 12:26:15;;;;;;;;;;;;;;;25.05;51.79;99197.31;1414618;92;20264;-87
2021/08/06 12:28:48;;;;;;;;;;;;;;;25.25;50.81;99197.05;1429961;92;20793;-88
2021/08/06 12:31:23;;;;;;;;;;;;;;;25.51;50.77;99195.88;1408648;93;20290;-88
2021/08/06 12:34:03;;;;;;;;;;;;;;;25.61;48.11;99201.83;1417369;92;20314;-88
2021/08/06 12:36:29;;;;;;;;;;;;;;;25.85;47.93;99208.80;1401561;93;20312;-87
2021/08/06 12:39:10;;;;;;;;;;;;;;;26.33;48.34;99203.67;1421194;92;20337;-87
2021/08/06 12:41:37;;;;;;;;;;;;;;;26.60;47.99;99205.14;1407613;93;20245;-87
2021/08/06 12:44:19;;;;;;;;;;;;;;;26.66;48.55;99210.79;1415180;92;20844;-88
2021/08/06 12:47:01;;;;;;;;;;;;;;;26.40;45.75;99197.38;1407025;92;20360;-88
2021/08/06 12:49:33;;;;;;;;;;;;;;;26.19;44.57;99217.59;1399960;93;20387;-88
2021/08/06 12:52:02;;;;;;;;;;;;;;;26.04;46.45;99213.87;1421803;92;20449;-87
2021/08/06 12:54:33;;;;;;;;;;;;;;;25.88;46.11;99221.25;1414605;92;20263;-87